sensor_id;sensor_type;location;lat;lon;timestamp;pressure;altitude;pressure_sealevel;temperature;humidity
65227;BME280;51805;49.012;12.104;2023-01-29T00:01:42;98831.97;;;22.11;43.73
65227;BME280;51805;49.012;12.104;2023-01-29T00:04:07;98828.44;;;22.10;43.68
65227;BME280;51805;49.012;12.104;2023-01-29T00:06:32;98836.81;;;22.09;43.90
65227;BME280;51805;49.012;12.104;2023-01-29T00:08:58;98832.81;;;22.11;43.77
65227;BME280;51805;49.012;12.104;2023-01-29T00:11:23;98830.59;;;22.08;43.90
65227;BME280;51805;49.012;12.104;2023-01-29T00:13:48;98841.94;;;22.05;43.86
65227;BME280;51805;49.012;12.104;2023-01-29T00:16:13;98847.88;;;22.02;44.04
65227;BME280;51805;49.012;12.104;2023-01-29T00:18:39;98841.38;;;22.03;43.97
65227;BME280;51805;49.012;12.104;2023-01-29T00:21:17;98839.50;;;22.04;43.96
65227;BME280;51805;49.012;12.104;2023-01-29T00:23:43;98840.47;;;21.98;44.03
65227;BME280;51805;49.012;12.104;2023-01-29T00:26:09;98830.53;;;22.03;43.92
65227;BME280;51805;49.012;12.104;2023-01-29T00:28:34;98825.59;;;21.95;43.93
65227;BME280;51805;49.012;12.104;2023-01-29T00:31:06;98818.81;;;21.98;44.00
65227;BME280;51805;49.012;12.104;2023-01-29T00:33:31;98835.03;;;21.93;44.01
65227;BME280;51805;49.012;12.104;2023-01-29T00:35:56;98840.75;;;21.96;44.05
65227;BME280;51805;49.012;12.104;2023-01-29T00:38:22;98835.91;;;21.98;43.89
65227;BME280;51805;49.012;12.104;2023-01-29T00:40:47;98835.81;;;21.88;44.03
65227;BME280;51805;49.012;12.104;2023-01-29T00:43:12;98835.28;;;21.91;44.11
65227;BME280;51805;49.012;12.104;2023-01-29T00:45:37;98846.91;;;21.92;44.09
65227;BME280;51805;49.012;12.104;2023-01-29T00:48:02;98832.00;;;21.89;44.13
65227;BME280;51805;49.012;12.104;2023-01-29T00:50:28;98832.53;;;21.86;44.10
65227;BME280;51805;49.012;12.104;2023-01-29T00:52:53;98828.72;;;21.87;44.12
65227;BME280;51805;49.012;12.104;2023-01-29T00:55:18;98832.00;;;21.89;44.09
65227;BME280;51805;49.012;12.104;2023-01-29T00:57:43;98824.16;;;21.88;44.16
65227;BME280;51805;49.012;12.104;2023-01-29T01:00:10;98820.06;;;21.85;44.18
65227;BME280;51805;49.012;12.104;2023-01-29T01:02:35;98812.22;;;21.84;44.09
65227;BME280;51805;49.012;12.104;2023-01-29T01:05:00;98817.38;;;21.85;44.03
65227;BME280;51805;49.012;12.104;2023-01-29T01:07:26;98815.97;;;21.83;44.27
65227;BME280;51805;49.012;12.104;2023-01-29T01:09:51;98814.34;;;21.82;44.28
65227;BME280;51805;49.012;12.104;2023-01-29T01:12:16;98821.38;;;21.83;44.07
65227;BME280;51805;49.012;12.104;2023-01-29T01:14:41;98821.38;;;21.83;44.05
65227;BME280;51805;49.012;12.104;2023-01-29T01:17:06;98817.63;;;21.84;43.95
65227;BME280;51805;49.012;12.104;2023-01-29T01:19:32;98815.34;;;21.76;44.28
65227;BME280;51805;49.012;12.104;2023-01-29T01:21:57;98807.47;;;21.74;44.40
65227;BME280;51805;49.012;12.104;2023-01-29T01:24:22;98812.66;;;21.76;44.30
65227;BME280;51805;49.012;12.104;2023-01-29T01:26:47;98807.81;;;21.78;44.24
65227;BME280;51805;49.012;12.104;2023-01-29T01:29:13;98820.78;;;21.76;44.12
65227;BME280;51805;49.012;12.104;2023-01-29T01:31:38;98812.88;;;21.74;44.13
65227;BME280;51805;49.012;12.104;2023-01-29T01:34:03;98805.00;;;21.73;44.16
65227;BME280;51805;49.012;12.104;2023-01-29T01:36:28;98805.19;;;21.66;44.27
65227;BME280;51805;49.012;12.104;2023-01-29T01:38:53;98809.28;;;21.69;44.25
65227;BME280;51805;49.012;12.104;2023-01-29T01:41:19;98809.28;;;21.69;44.37
65227;BME280;51805;49.012;12.104;2023-01-29T01:43:54;98806.56;;;21.69;44.32
65227;BME280;51805;49.012;12.104;2023-01-29T01:46:20;98792.25;;;21.68;44.27
65227;BME280;51805;49.012;12.104;2023-01-29T01:48:46;98787.88;;;21.67;44.25
65227;BME280;51805;49.012;12.104;2023-01-29T01:51:13;98787.34;;;21.65;44.42
65227;BME280;51805;49.012;12.104;2023-01-29T01:53:40;98796.50;;;21.64;44.32
65227;BME280;51805;49.012;12.104;2023-01-29T01:56:08;98793.28;;;21.62;44.26
65227;BME280;51805;49.012;12.104;2023-01-29T01:58:36;98787.53;;;21.59;44.38
65227;BME280;51805;49.012;12.104;2023-01-29T02:01:06;98786.47;;;21.60;44.42
65227;BME280;51805;49.012;12.104;2023-01-29T02:03:33;98786.19;;;21.61;44.24
65227;BME280;51805;49.012;12.104;2023-01-29T02:05:59;98781.81;;;21.55;44.37
65227;BME280;51805;49.012;12.104;2023-01-29T02:08:41;98783.69;;;21.55;44.56
65227;BME280;51805;49.012;12.104;2023-01-29T02:11:07;98779.09;;;21.55;44.48
65227;BME280;51805;49.012;12.104;2023-01-29T02:13:32;98779.69;;;21.57;44.47
65227;BME280;51805;49.012;12.104;2023-01-29T02:15:57;98794.25;;;21.56;44.42
65227;BME280;51805;49.012;12.104;2023-01-29T02:18:22;98793.97;;;21.53;44.33
65227;BME280;51805;49.012;12.104;2023-01-29T02:20:48;98801.25;;;21.52;44.47
65227;BME280;51805;49.012;12.104;2023-01-29T02:23:32;98804.78;;;21.53;44.54
65227;BME280;51805;49.012;12.104;2023-01-29T02:26:46;98803.94;;;21.52;44.53
65227;BME280;51805;49.012;12.104;2023-01-29T02:28:50;98801.75;;;21.49;44.46
65227;BME280;51805;49.012;12.104;2023-01-29T02:36:19;98806.91;;;21.51;44.40
65227;BME280;51805;49.012;12.104;2023-01-29T02:41:16;98811.69;;;21.43;44.46
65227;BME280;51805;49.012;12.104;2023-01-29T02:43:47;98810.63;;;21.44;44.60
65227;BME280;51805;49.012;12.104;2023-01-29T02:48:44;98804.97;;;21.46;44.39
65227;BME280;51805;49.012;12.104;2023-01-29T02:51:16;98810.88;;;21.43;44.27
65227;BME280;51805;49.012;12.104;2023-01-29T02:53:47;98808.41;;;21.41;44.46
65227;BME280;51805;49.012;12.104;2023-01-29T02:56:17;98808.09;;;21.38;44.61
65227;BME280;51805;49.012;12.104;2023-01-29T02:58:45;98809.44;;;21.35;44.66
65227;BME280;51805;49.012;12.104;2023-01-29T03:01:16;98804.28;;;21.34;44.70
65227;BME280;51805;49.012;12.104;2023-01-29T03:03:44;98805.31;;;21.33;44.75
65227;BME280;51805;49.012;12.104;2023-01-29T03:08:40;98803.19;;;21.35;44.48
65227;BME280;51805;49.012;12.104;2023-01-29T03:11:06;98798.28;;;21.32;44.64
65227;BME280;51805;49.012;12.104;2023-01-29T03:13:36;98798.78;;;21.29;44.57
65227;BME280;51805;49.012;12.104;2023-01-29T03:16:06;98803.38;;;21.28;44.72
65227;BME280;51805;49.012;12.104;2023-01-29T03:18:36;98800.13;;;21.26;44.66
65227;BME280;51805;49.012;12.104;2023-01-29T03:21:04;98793.88;;;21.26;44.77
65227;BME280;51805;49.012;12.104;2023-01-29T03:23:32;98788.47;;;21.26;44.83
65227;BME280;51805;49.012;12.104;2023-01-29T03:25:59;98785.78;;;21.26;44.74
65227;BME280;51805;49.012;12.104;2023-01-29T03:28:24;98786.84;;;21.25;44.80
65227;BME280;51805;49.012;12.104;2023-01-29T03:30:53;98798.72;;;21.24;44.90
65227;BME280;51805;49.012;12.104;2023-01-29T03:33:20;98800.88;;;21.22;44.87
65227;BME280;51805;49.012;12.104;2023-01-29T03:35:49;98803.59;;;21.22;44.89
65227;BME280;51805;49.012;12.104;2023-01-29T03:38:15;98806.84;;;21.24;44.80
65227;BME280;51805;49.012;12.104;2023-01-29T03:43:10;98804.09;;;21.19;44.85
65227;BME280;51805;49.012;12.104;2023-01-29T03:45:42;98816.19;;;21.16;44.92
65227;BME280;51805;49.012;12.104;2023-01-29T03:48:15;98811.63;;;21.17;44.76
65227;BME280;51805;49.012;12.104;2023-01-29T03:56:07;98827.50;;;21.13;44.96
65227;BME280;51805;49.012;12.104;2023-01-29T04:04:34;98828.84;;;21.11;44.93
65227;BME280;51805;49.012;12.104;2023-01-29T04:06:31;98824.72;;;21.08;45.07
65227;BME280;51805;49.012;12.104;2023-01-29T04:08:59;98824.97;;;21.07;44.96
65227;BME280;51805;49.012;12.104;2023-01-29T04:11:27;98822.28;;;21.07;44.86
65227;BME280;51805;49.012;12.104;2023-01-29T04:13:53;98822.28;;;21.07;44.95
65227;BME280;51805;49.012;12.104;2023-01-29T04:16:20;98814.66;;;21.04;45.09
65227;BME280;51805;49.012;12.104;2023-01-29T04:18:46;98815.75;;;21.03;45.03
65227;BME280;51805;49.012;12.104;2023-01-29T04:21:12;98810.59;;;21.01;45.16
65227;BME280;51805;49.012;12.104;2023-01-29T04:23:38;98807.06;;;21.01;45.12
65227;BME280;51805;49.012;12.104;2023-01-29T04:31:21;98820.81;;;20.99;45.10
65227;BME280;51805;49.012;12.104;2023-01-29T04:36:27;98825.66;;;20.97;45.10
65227;BME280;51805;49.012;12.104;2023-01-29T04:46:44;98825.91;;;20.96;45.06
65227;BME280;51805;49.012;12.104;2023-01-29T04:51:42;98817.19;;;20.94;45.01
65227;BME280;51805;49.012;12.104;2023-01-29T04:54:17;98818.50;;;20.91;44.96
65227;BME280;51805;49.012;12.104;2023-01-29T04:59:11;98814.41;;;20.89;45.26
65227;BME280;51805;49.012;12.104;2023-01-29T05:01:38;98819.00;;;20.88;45.28
65227;BME280;51805;49.012;12.104;2023-01-29T05:04:05;98818.75;;;20.90;45.21
65227;BME280;51805;49.012;12.104;2023-01-29T05:06:31;98815.50;;;20.88;45.14
65227;BME280;51805;49.012;12.104;2023-01-29T05:08:56;98819.25;;;20.87;45.14
65227;BME280;51805;49.012;12.104;2023-01-29T05:11:23;98824.09;;;20.85;45.11
65227;BME280;51805;49.012;12.104;2023-01-29T05:13:49;98818.69;;;20.85;45.25
65227;BME280;51805;49.012;12.104;2023-01-29T05:16:21;98803.28;;;20.85;45.22
65227;BME280;51805;49.012;12.104;2023-01-29T05:18:48;98818.13;;;20.83;45.24
65227;BME280;51805;49.012;12.104;2023-01-29T05:21:13;98811.09;;;20.82;45.12
65227;BME280;51805;49.012;12.104;2023-01-29T05:23:38;98797.56;;;20.82;45.20
65227;BME280;51805;49.012;12.104;2023-01-29T05:26:04;98794.03;;;20.81;45.11
65227;BME280;51805;49.012;12.104;2023-01-29T05:28:29;98801.91;;;20.83;45.15
65227;BME280;51805;49.012;12.104;2023-01-29T05:30:55;98801.91;;;20.83;45.08
65227;BME280;51805;49.012;12.104;2023-01-29T05:33:24;98802.47;;;20.85;44.99
65227;BME280;51805;49.012;12.104;2023-01-29T05:35:49;98804.09;;;20.86;45.10
65227;BME280;51805;49.012;12.104;2023-01-29T05:38:15;98796.84;;;20.86;45.12
65227;BME280;51805;49.012;12.104;2023-01-29T05:40:40;98797.63;;;20.87;45.01
65227;BME280;51805;49.012;12.104;2023-01-29T05:43:10;98805.22;;;20.90;45.07
65227;BME280;51805;49.012;12.104;2023-01-29T05:45:37;98801.50;;;20.91;44.98
65227;BME280;51805;49.012;12.104;2023-01-29T05:48:02;98801.50;;;20.91;44.96
65227;BME280;51805;49.012;12.104;2023-01-29T05:50:28;98807.69;;;20.91;44.64
65227;BME280;51805;49.012;12.104;2023-01-29T05:52:57;98804.75;;;20.93;44.94
65227;BME280;51805;49.012;12.104;2023-01-29T05:55:22;98820.50;;;20.96;44.95
65227;BME280;51805;49.012;12.104;2023-01-29T05:57:47;98822.13;;;20.97;44.86
65227;BME280;51805;49.012;12.104;2023-01-29T06:00:12;98820.50;;;20.96;44.82
65227;BME280;51805;49.012;12.104;2023-01-29T06:02:38;98816.81;;;21.02;44.67
65227;BME280;51805;49.012;12.104;2023-01-29T06:05:03;98816.81;;;21.02;44.80
65227;BME280;51805;49.012;12.104;2023-01-29T06:07:28;98814.91;;;21.02;44.84
65227;BME280;51805;49.012;12.104;2023-01-29T06:09:53;98804.94;;;21.03;44.95
65227;BME280;51805;49.012;12.104;2023-01-29T06:12:19;98795.50;;;21.05;44.78
65227;BME280;51805;49.012;12.104;2023-01-29T06:14:44;98796.91;;;21.08;44.79
65227;BME280;51805;49.012;12.104;2023-01-29T06:17:09;98793.94;;;21.09;44.85
65227;BME280;51805;49.012;12.104;2023-01-29T06:19:34;98779.34;;;21.10;44.92
65227;BME280;51805;49.012;12.104;2023-01-29T06:21:59;98775.31;;;21.13;44.91
65227;BME280;51805;49.012;12.104;2023-01-29T06:24:24;98779.09;;;21.12;44.79
65227;BME280;51805;49.012;12.104;2023-01-29T06:26:49;98778.09;;;21.18;44.71
65227;BME280;51805;49.012;12.104;2023-01-29T06:29:14;98775.41;;;21.18;44.74
65227;BME280;51805;49.012;12.104;2023-01-29T06:31:40;98775.47;;;21.23;44.63
65227;BME280;51805;49.012;12.104;2023-01-29T06:34:07;98773.28;;;21.20;44.88
65227;BME280;51805;49.012;12.104;2023-01-29T06:36:33;98766.53;;;21.22;44.83
65227;BME280;51805;49.012;12.104;2023-01-29T06:38:58;98757.66;;;21.27;44.85
65227;BME280;51805;49.012;12.104;2023-01-29T06:41:23;98760.13;;;21.28;44.58
65227;BME280;51805;49.012;12.104;2023-01-29T06:43:48;98763.13;;;21.32;44.51
65227;BME280;51805;49.012;12.104;2023-01-29T06:46:13;98756.41;;;21.34;44.72
65227;BME280;51805;49.012;12.104;2023-01-29T06:48:38;98769.38;;;21.32;44.73
65227;BME280;51805;49.012;12.104;2023-01-29T06:51:04;98765.34;;;21.35;44.58
65227;BME280;51805;49.012;12.104;2023-01-29T06:53:30;98772.63;;;21.34;44.72
65227;BME280;51805;49.012;12.104;2023-01-29T06:55:55;98780.25;;;21.37;44.62
65227;BME280;51805;49.012;12.104;2023-01-29T06:58:20;98786.78;;;21.41;44.45
65227;BME280;51805;49.012;12.104;2023-01-29T07:00:45;98781.69;;;21.45;44.59
65227;BME280;51805;49.012;12.104;2023-01-29T07:03:10;98795.72;;;21.42;44.44
65227;BME280;51805;49.012;12.104;2023-01-29T07:05:36;98791.94;;;21.43;44.56
65227;BME280;51805;49.012;12.104;2023-01-29T07:08:01;98797.94;;;21.45;44.42
65227;BME280;51805;49.012;12.104;2023-01-29T07:10:26;98810.94;;;21.48;44.59
65227;BME280;51805;49.012;12.104;2023-01-29T07:12:51;98805.03;;;21.51;44.51
65227;BME280;51805;49.012;12.104;2023-01-29T07:15:17;98803.13;;;21.52;44.38
65227;BME280;51805;49.012;12.104;2023-01-29T07:17:42;98815.09;;;21.56;44.46
65227;BME280;51805;49.012;12.104;2023-01-29T07:20:07;98808.84;;;21.55;44.44
65227;BME280;51805;49.012;12.104;2023-01-29T07:22:32;98823.78;;;21.58;44.43
65227;BME280;51805;49.012;12.104;2023-01-29T07:24:58;98826.22;;;21.59;44.45
65227;BME280;51805;49.012;12.104;2023-01-29T07:27:23;98821.94;;;21.63;44.11
65227;BME280;51805;49.012;12.104;2023-01-29T07:29:48;98819.81;;;21.65;44.21
65227;BME280;51805;49.012;12.104;2023-01-29T07:32:13;98815.44;;;21.64;44.42
65227;BME280;51805;49.012;12.104;2023-01-29T07:34:38;98813.81;;;21.63;44.18
65227;BME280;51805;49.012;12.104;2023-01-29T07:37:03;98810.94;;;21.70;44.13
65227;BME280;51805;49.012;12.104;2023-01-29T07:39:28;98812.81;;;21.69;44.20
65227;BME280;51805;49.012;12.104;2023-01-29T07:41:53;98815.53;;;21.69;44.16
65227;BME280;51805;49.012;12.104;2023-01-29T07:44:19;98819.13;;;21.75;44.10
65227;BME280;51805;49.012;12.104;2023-01-29T07:46:44;98819.34;;;21.73;44.14
65227;BME280;51805;49.012;12.104;2023-01-29T07:49:09;98816.88;;;21.72;44.33
65227;BME280;51805;49.012;12.104;2023-01-29T07:51:34;98817.72;;;21.72;44.35
65227;BME280;51805;49.012;12.104;2023-01-29T07:53:59;98832.38;;;21.76;44.12
65227;BME280;51805;49.012;12.104;2023-01-29T07:56:24;98829.13;;;21.74;44.12
65227;BME280;51805;49.012;12.104;2023-01-29T07:58:49;98829.94;;;21.75;44.17
65227;BME280;51805;49.012;12.104;2023-01-29T08:01:14;98837.81;;;21.76;44.18
65227;BME280;51805;49.012;12.104;2023-01-29T08:03:40;98832.38;;;21.76;44.06
65227;BME280;51805;49.012;12.104;2023-01-29T08:06:05;98832.16;;;21.78;44.15
65227;BME280;51805;49.012;12.104;2023-01-29T08:08:30;98830.25;;;21.78;44.09
65227;BME280;51805;49.012;12.104;2023-01-29T08:10:55;98844.69;;;21.84;43.87
65227;BME280;51805;49.012;12.104;2023-01-29T08:13:20;98857.38;;;21.83;43.84
65227;BME280;51805;49.012;12.104;2023-01-29T08:15:45;98862.22;;;21.81;44.05
65227;BME280;51805;49.012;12.104;2023-01-29T08:18:11;98865.25;;;21.85;44.00
65227;BME280;51805;49.012;12.104;2023-01-29T08:20:36;98861.47;;;21.86;43.99
65227;BME280;51805;49.012;12.104;2023-01-29T08:23:03;98870.97;;;21.88;44.03
65227;BME280;51805;49.012;12.104;2023-01-29T08:25:29;98874.50;;;21.89;43.81
65227;BME280;51805;49.012;12.104;2023-01-29T08:27:57;98867.19;;;21.89;43.79
65227;BME280;51805;49.012;12.104;2023-01-29T08:30:23;98865.59;;;21.93;43.81
65227;BME280;51805;49.012;12.104;2023-01-29T08:32:49;98860.19;;;21.93;43.76
65227;BME280;51805;49.012;12.104;2023-01-29T08:35:14;98865.09;;;21.96;43.81
65227;BME280;51805;49.012;12.104;2023-01-29T08:37:39;98867.53;;;21.98;43.59
65227;BME280;51805;49.012;12.104;2023-01-29T08:40:04;98873.78;;;21.98;43.65
65227;BME280;51805;49.012;12.104;2023-01-29T08:42:29;98877.06;;;22.00;43.63
65227;BME280;51805;49.012;12.104;2023-01-29T08:44:54;98879.00;;;22.05;43.45
65227;BME280;51805;49.012;12.104;2023-01-29T08:47:20;98880.91;;;22.04;43.46
65227;BME280;51805;49.012;12.104;2023-01-29T08:49:45;98880.38;;;22.07;43.62
65227;BME280;51805;49.012;12.104;2023-01-29T08:52:10;98883.59;;;22.04;43.48
65227;BME280;51805;49.012;12.104;2023-01-29T08:54:35;98884.75;;;22.08;43.54
65227;BME280;51805;49.012;12.104;2023-01-29T08:57:00;98886.88;;;22.06;43.54
65227;BME280;51805;49.012;12.104;2023-01-29T08:59:25;98905.91;;;22.11;43.26
65227;BME280;51805;49.012;12.104;2023-01-29T09:01:50;98898.81;;;22.10;43.36
65227;BME280;51805;49.012;12.104;2023-01-29T09:04:15;98902.94;;;22.13;43.29
65227;BME280;51805;49.012;12.104;2023-01-29T09:06:40;98913.50;;;22.14;43.25
65227;BME280;51805;49.012;12.104;2023-01-29T09:09:06;98906.19;;;22.15;43.42
65227;BME280;51805;49.012;12.104;2023-01-29T09:11:31;98905.69;;;22.18;43.22
65227;BME280;51805;49.012;12.104;2023-01-29T09:13:56;98907.06;;;22.20;43.20
65227;BME280;51805;49.012;12.104;2023-01-29T09:16:21;98895.66;;;22.18;43.19
65227;BME280;51805;49.012;12.104;2023-01-29T09:18:46;98891.34;;;22.17;43.37
65227;BME280;51805;49.012;12.104;2023-01-29T09:21:11;98895.16;;;22.21;43.30
65227;BME280;51805;49.012;12.104;2023-01-29T09:23:36;98885.41;;;22.20;43.18
65227;BME280;51805;49.012;12.104;2023-01-29T09:26:01;98895.16;;;22.21;43.11
65227;BME280;51805;49.012;12.104;2023-01-29T09:28:27;98891.41;;;22.22;43.08
65227;BME280;51805;49.012;12.104;2023-01-29T09:30:52;98884.66;;;22.25;43.12
65227;BME280;51805;49.012;12.104;2023-01-29T09:33:17;98882.78;;;22.25;43.10
65227;BME280;51805;49.012;12.104;2023-01-29T09:35:42;98894.41;;;22.26;43.23
65227;BME280;51805;49.012;12.104;2023-01-29T09:38:08;98896.31;;;22.25;43.10
65227;BME280;51805;49.012;12.104;2023-01-29T09:40:54;98897.94;;;22.26;43.10
65227;BME280;51805;49.012;12.104;2023-01-29T09:45:54;98888.22;;;22.30;43.03
65227;BME280;51805;49.012;12.104;2023-01-29T09:48:24;98896.59;;;22.29;43.20
65227;BME280;51805;49.012;12.104;2023-01-29T09:50:50;98881.16;;;22.29;43.23
65227;BME280;51805;49.012;12.104;2023-01-29T09:53:23;98882.78;;;22.30;43.02
65227;BME280;51805;49.012;12.104;2023-01-29T09:58:45;98882.84;;;22.35;43.14
65227;BME280;51805;49.012;12.104;2023-01-29T10:01:28;98874.72;;;22.35;43.07
65227;BME280;51805;49.012;12.104;2023-01-29T10:14:29;98850.41;;;22.40;43.00
65227;BME280;51805;49.012;12.104;2023-01-29T10:19:33;98847.44;;;22.42;43.04
65227;BME280;51805;49.012;12.104;2023-01-29T10:22:19;98853.69;;;22.42;42.91
65227;BME280;51805;49.012;12.104;2023-01-29T10:24:53;98856.13;;;22.44;42.72
65227;BME280;51805;49.012;12.104;2023-01-29T10:27:21;98856.94;;;22.44;43.09
65227;BME280;51805;49.012;12.104;2023-01-29T10:29:47;98844.22;;;22.45;42.96
65227;BME280;51805;49.012;12.104;2023-01-29T10:32:15;98846.09;;;22.44;43.04
65227;BME280;51805;49.012;12.104;2023-01-29T10:34:45;98847.25;;;22.48;43.09
65227;BME280;51805;49.012;12.104;2023-01-29T10:37:15;98847.25;;;22.48;42.79
65227;BME280;51805;49.012;12.104;2023-01-29T10:39:41;98846.16;;;22.49;42.92
65227;BME280;51805;49.012;12.104;2023-01-29T10:47:22;98840.50;;;22.51;42.85
65227;BME280;51805;49.012;12.104;2023-01-29T10:49:54;98837.53;;;22.52;42.68
65227;BME280;51805;49.012;12.104;2023-01-29T11:00:19;98821.59;;;22.56;42.63
65227;BME280;51805;49.012;12.104;2023-01-29T11:02:46;98819.16;;;22.54;42.82
65227;BME280;51805;49.012;12.104;2023-01-29T11:08:04;98795.88;;;22.58;42.70
65227;BME280;51805;49.012;12.104;2023-01-29T11:10:31;98791.00;;;22.60;42.85
65227;BME280;51805;49.012;12.104;2023-01-29T11:12:58;98784.78;;;22.60;42.59
65227;BME280;51805;49.012;12.104;2023-01-29T11:15:25;98780.19;;;22.60;42.75
65227;BME280;51805;49.012;12.104;2023-01-29T11:18:03;98784.22;;;22.58;42.87
65227;BME280;51805;49.012;12.104;2023-01-29T11:20:30;98785.28;;;22.57;42.80
65227;BME280;51805;49.012;12.104;2023-01-29T11:22:56;98781.00;;;22.61;42.91
65227;BME280;51805;49.012;12.104;2023-01-29T11:25:22;98777.22;;;22.62;42.78
65227;BME280;51805;49.012;12.104;2023-01-29T11:27:55;98776.38;;;22.61;42.83
65227;BME280;51805;49.012;12.104;2023-01-29T11:30:22;98783.47;;;22.62;42.92
65227;BME280;51805;49.012;12.104;2023-01-29T11:32:49;98788.31;;;22.60;43.00
65227;BME280;51805;49.012;12.104;2023-01-29T11:37:40;98781.81;;;22.61;42.99
65227;BME280;51805;49.012;12.104;2023-01-29T11:40:28;98785.06;;;22.63;42.71
65227;BME280;51805;49.012;12.104;2023-01-29T11:42:56;98779.97;;;22.67;42.99
65227;BME280;51805;49.012;12.104;2023-01-29T11:45:35;98775.34;;;22.67;42.77
65227;BME280;51805;49.012;12.104;2023-01-29T11:48:02;98762.88;;;22.66;42.89
65227;BME280;51805;49.012;12.104;2023-01-29T11:50:28;98765.06;;;22.69;42.83
65227;BME280;51805;49.012;12.104;2023-01-29T11:52:54;98757.75;;;22.70;42.76
65227;BME280;51805;49.012;12.104;2023-01-29T11:55:24;98756.09;;;22.69;42.83
65227;BME280;51805;49.012;12.104;2023-01-29T11:57:51;98746.09;;;22.69;42.87
65227;BME280;51805;49.012;12.104;2023-01-29T12:05:31;98736.34;;;22.68;42.98
65227;BME280;51805;49.012;12.104;2023-01-29T12:07:57;98725.50;;;22.73;42.93
65227;BME280;51805;49.012;12.104;2023-01-29T12:10:37;98721.75;;;22.74;42.88
65227;BME280;51805;49.012;12.104;2023-01-29T12:13:03;98710.09;;;22.74;42.88
65227;BME280;51805;49.012;12.104;2023-01-29T12:15:29;98709.00;;;22.75;42.71
65227;BME280;51805;49.012;12.104;2023-01-29T12:17:59;98699.53;;;22.77;42.68
65227;BME280;51805;49.012;12.104;2023-01-29T12:20:29;98699.53;;;22.77;42.69
65227;BME280;51805;49.012;12.104;2023-01-29T12:25:43;98704.44;;;22.80;42.74
65227;BME280;51805;49.012;12.104;2023-01-29T12:30:47;98692.25;;;22.83;42.70
65227;BME280;51805;49.012;12.104;2023-01-29T12:33:57;98694.16;;;22.82;42.73
65227;BME280;51805;49.012;12.104;2023-01-29T12:36:13;98702.28;;;22.82;42.60
65227;BME280;51805;49.012;12.104;2023-01-29T12:38:42;98698.22;;;22.85;42.57
65227;BME280;51805;49.012;12.104;2023-01-29T12:41:18;98691.72;;;22.86;42.56
65227;BME280;51805;49.012;12.104;2023-01-29T12:43:48;98689.81;;;22.86;42.58
65227;BME280;51805;49.012;12.104;2023-01-29T12:46:23;98689.81;;;22.86;42.64
65227;BME280;51805;49.012;12.104;2023-01-29T12:48:50;98690.34;;;22.83;42.63
65227;BME280;51805;49.012;12.104;2023-01-29T12:51:21;98684.38;;;22.81;42.74
65227;BME280;51805;49.012;12.104;2023-01-29T12:53:48;98676.81;;;22.83;42.66
65227;BME280;51805;49.012;12.104;2023-01-29T12:56:22;98673.84;;;22.85;42.55
65227;BME280;51805;49.012;12.104;2023-01-29T12:58:50;98668.69;;;22.83;42.72
65227;BME280;51805;49.012;12.104;2023-01-29T13:01:27;98668.41;;;22.85;42.60
65227;BME280;51805;49.012;12.104;2023-01-29T13:03:56;98664.59;;;22.86;42.64
65227;BME280;51805;49.012;12.104;2023-01-29T13:06:30;98654.59;;;22.86;42.47
65227;BME280;51805;49.012;12.104;2023-01-29T13:08:58;98661.09;;;22.85;42.62
65227;BME280;51805;49.012;12.104;2023-01-29T13:13:58;98660.00;;;22.86;42.62
65227;BME280;51805;49.012;12.104;2023-01-29T13:16:25;98664.06;;;22.84;42.66
65227;BME280;51805;49.012;12.104;2023-01-29T13:18:55;98658.91;;;22.82;42.66
65227;BME280;51805;49.012;12.104;2023-01-29T13:21:30;98659.97;;;22.81;42.86
65227;BME280;51805;49.012;12.104;2023-01-29T13:24:11;98650.53;;;22.84;42.71
65227;BME280;51805;49.012;12.104;2023-01-29T13:26:36;98651.88;;;22.86;42.66
65227;BME280;51805;49.012;12.104;2023-01-29T13:29:02;98642.94;;;22.86;42.69
65227;BME280;51805;49.012;12.104;2023-01-29T13:31:34;98643.22;;;22.89;42.59
65227;BME280;51805;49.012;12.104;2023-01-29T13:36:31;98641.88;;;22.87;42.68
65227;BME280;51805;49.012;12.104;2023-01-29T13:39:04;98635.09;;;22.89;42.63
65227;BME280;51805;49.012;12.104;2023-01-29T13:41:31;98639.94;;;22.87;42.68
65227;BME280;51805;49.012;12.104;2023-01-29T13:43:57;98644.84;;;22.90;42.63
65227;BME280;51805;49.012;12.104;2023-01-29T13:46:22;98651.91;;;22.91;42.62
65227;BME280;51805;49.012;12.104;2023-01-29T13:48:48;98663.28;;;22.88;42.58
65227;BME280;51805;49.012;12.104;2023-01-29T13:51:16;98664.34;;;22.87;42.67
65227;BME280;51805;49.012;12.104;2023-01-29T13:53:50;98653.25;;;22.84;42.71
65227;BME280;51805;49.012;12.104;2023-01-29T13:58:54;98660.84;;;22.87;42.67
65227;BME280;51805;49.012;12.104;2023-01-29T14:04:14;98661.63;;;22.87;42.66
65227;BME280;51805;49.012;12.104;2023-01-29T14:06:49;98657.56;;;22.85;42.91
65227;BME280;51805;49.012;12.104;2023-01-29T14:11:58;98636.44;;;22.87;42.71
65227;BME280;51805;49.012;12.104;2023-01-29T14:17:07;98631.81;;;22.82;42.94
65227;BME280;51805;49.012;12.104;2023-01-29T14:19:33;98624.72;;;22.76;42.97
65227;BME280;51805;49.012;12.104;2023-01-29T14:21:58;98628.25;;;22.77;42.89
65227;BME280;51805;49.012;12.104;2023-01-29T14:24:23;98632.06;;;22.76;43.09
65227;BME280;51805;49.012;12.104;2023-01-29T14:26:53;98620.66;;;22.74;43.03
65227;BME280;51805;49.012;12.104;2023-01-29T14:29:22;98620.66;;;22.74;43.17
65227;BME280;51805;49.012;12.104;2023-01-29T14:31:52;98623.91;;;22.71;43.20
65227;BME280;51805;49.012;12.104;2023-01-29T14:34:23;98626.88;;;22.69;43.18
65227;BME280;51805;49.012;12.104;2023-01-29T14:36:49;98613.31;;;22.69;43.26
65227;BME280;51805;49.012;12.104;2023-01-29T14:42:01;98617.13;;;22.73;43.10
65227;BME280;51805;49.012;12.104;2023-01-29T14:49:55;98626.88;;;22.69;43.21